sensor_id;sensor_type;location;lat;lon;timestamp;temperature;humidity
64468;DHT22;50853;46.836;16.820;2022-11-20T05:38:50;24.50;55.40
64468;DHT22;50853;46.836;16.820;2022-11-20T05:41:18;24.60;56.20
64468;DHT22;50853;46.836;16.820;2022-11-20T05:43:45;24.50;56.20
64468;DHT22;50853;46.836;16.820;2022-11-20T05:46:13;24.60;56.40
64468;DHT22;50853;46.836;16.820;2022-11-20T05:48:41;24.60;56.60
64468;DHT22;50853;46.836;16.820;2022-11-20T08:08:26;23.10;39.70
64468;DHT22;50853;46.836;16.820;2022-11-20T08:10:52;23.10;45.30
64468;DHT22;50853;46.836;16.820;2022-11-20T08:13:17;23.40;46.70
64468;DHT22;50853;46.836;16.820;2022-11-20T08:16:02;23.60;47.40
64468;DHT22;50853;46.836;16.820;2022-11-20T08:18:28;23.60;50.90
64468;DHT22;50853;46.836;16.820;2022-11-20T08:20:54;23.80;51.60
64468;DHT22;50853;46.836;16.820;2022-11-20T08:23:19;23.80;51.00
64468;DHT22;50853;46.836;16.820;2022-11-20T08:25:49;23.80;51.30
64468;DHT22;50853;46.836;16.820;2022-11-20T08:28:15;23.90;50.90
64468;DHT22;50853;46.836;16.820;2022-11-20T08:30:40;24.00;51.30
64468;DHT22;50853;46.836;16.820;2022-11-20T08:33:08;24.00;52.10
64468;DHT22;50853;46.836;16.820;2022-11-20T08:35:37;24.10;51.10
64468;DHT22;50853;46.836;16.820;2022-11-20T08:38:04;24.10;50.90
64468;DHT22;50853;46.836;16.820;2022-11-20T08:40:31;24.10;51.10
64468;DHT22;50853;46.836;16.820;2022-11-20T08:42:57;24.10;51.20
64468;DHT22;50853;46.836;16.820;2022-11-20T08:45:23;24.20;51.30
64468;DHT22;50853;46.836;16.820;2022-11-20T08:47:49;24.20;51.20
64468;DHT22;50853;46.836;16.820;2022-11-20T08:50:16;24.30;50.40
64468;DHT22;50853;46.836;16.820;2022-11-20T08:52:42;24.30;51.10
64468;DHT22;50853;46.836;16.820;2022-11-20T08:55:08;24.40;53.20
64468;DHT22;50853;46.836;16.820;2022-11-20T08:57:35;24.40;52.40
64468;DHT22;50853;46.836;16.820;2022-11-20T09:00:02;24.40;51.80
64468;DHT22;50853;46.836;16.820;2022-11-20T09:02:28;24.50;52.10
64468;DHT22;50853;46.836;16.820;2022-11-20T09:04:54;24.50;52.00
64468;DHT22;50853;46.836;16.820;2022-11-20T09:07:20;24.50;52.00
64468;DHT22;50853;46.836;16.820;2022-11-20T09:09:46;24.50;52.00
64468;DHT22;50853;46.836;16.820;2022-11-20T09:12:11;24.50;51.90
64468;DHT22;50853;46.836;16.820;2022-11-20T09:14:37;24.50;51.70
64468;DHT22;50853;46.836;16.820;2022-11-20T09:17:03;24.50;51.70
64468;DHT22;50853;46.836;16.820;2022-11-20T09:19:29;24.60;51.80
64468;DHT22;50853;46.836;16.820;2022-11-20T09:21:54;24.60;51.90
64468;DHT22;50853;46.836;16.820;2022-11-20T09:24:20;24.60;51.80
64468;DHT22;50853;46.836;16.820;2022-11-20T09:26:46;24.70;51.80
64468;DHT22;50853;46.836;16.820;2022-11-20T09:29:12;24.70;51.80
64468;DHT22;50853;46.836;16.820;2022-11-20T09:31:38;24.70;51.80
64468;DHT22;50853;46.836;16.820;2022-11-20T09:34:04;24.70;51.80
64468;DHT22;50853;46.836;16.820;2022-11-20T09:36:30;24.70;51.90
64468;DHT22;50853;46.836;16.820;2022-11-20T09:38:55;24.70;51.90
64468;DHT22;50853;46.836;16.820;2022-11-20T10:51:31;24.90;52.00
64468;DHT22;50853;46.836;16.820;2022-11-20T10:54:25;24.90;52.40
64468;DHT22;50853;46.836;16.820;2022-11-20T11:00:04;24.90;52.80
64468;DHT22;50853;46.836;16.820;2022-11-20T11:05:33;24.90;52.90
64468;DHT22;50853;46.836;16.820;2022-11-20T11:08:02;24.90;52.90
64468;DHT22;50853;46.836;16.820;2022-11-20T11:13:00;24.90;53.20
64468;DHT22;50853;46.836;16.820;2022-11-20T11:15:39;24.90;53.00
64468;DHT22;50853;46.836;16.820;2022-11-20T11:18:22;24.90;53.00
64468;DHT22;50853;46.836;16.820;2022-11-20T11:20:51;24.90;53.10
64468;DHT22;50853;46.836;16.820;2022-11-20T11:23:31;24.90;53.20
64468;DHT22;50853;46.836;16.820;2022-11-20T11:25:59;24.90;53.40
64468;DHT22;50853;46.836;16.820;2022-11-20T11:28:26;24.90;53.40
64468;DHT22;50853;46.836;16.820;2022-11-20T11:30:54;24.90;53.40
64468;DHT22;50853;46.836;16.820;2022-11-20T11:33:28;24.90;53.60
64468;DHT22;50853;46.836;16.820;2022-11-20T11:35:56;24.80;53.50
64468;DHT22;50853;46.836;16.820;2022-11-20T11:41:01;24.80;53.80
64468;DHT22;50853;46.836;16.820;2022-11-20T11:43:31;24.80;53.80
64468;DHT22;50853;46.836;16.820;2022-11-20T11:46:30;24.80;54.00
64468;DHT22;50853;46.836;16.820;2022-11-20T11:49:01;24.70;53.70
64468;DHT22;50853;46.836;16.820;2022-11-20T11:54:30;24.70;54.10
64468;DHT22;50853;46.836;16.820;2022-11-20T11:57:01;24.70;53.70
64468;DHT22;50853;46.836;16.820;2022-11-20T12:02:44;24.80;53.40
64468;DHT22;50853;46.836;16.820;2022-11-20T12:08:15;24.80;53.50
64468;DHT22;50853;46.836;16.820;2022-11-20T12:16:21;24.70;54.60
64468;DHT22;50853;46.836;16.820;2022-11-20T12:18:52;24.70;55.20
64468;DHT22;50853;46.836;16.820;2022-11-20T12:21:26;24.70;55.10
64468;DHT22;50853;46.836;16.820;2022-11-20T12:34:45;24.70;56.60
64468;DHT22;50853;46.836;16.820;2022-11-20T12:39:56;24.70;58.00
64468;DHT22;50853;46.836;16.820;2022-11-20T12:45:31;24.70;60.20
64468;DHT22;50853;46.836;16.820;2022-11-20T12:53:53;24.60;58.00
64468;DHT22;50853;46.836;16.820;2022-11-20T13:02:38;24.60;57.40
64468;DHT22;50853;46.836;16.820;2022-11-20T13:05:19;24.60;57.30
64468;DHT22;50853;46.836;16.820;2022-11-20T13:07:47;24.60;57.40
64468;DHT22;50853;46.836;16.820;2022-11-20T13:13:41;24.60;57.00
64468;DHT22;50853;46.836;16.820;2022-11-20T13:18:38;24.50;56.60
64468;DHT22;50853;46.836;16.820;2022-11-20T13:21:20;24.60;55.80
64468;DHT22;50853;46.836;16.820;2022-11-20T13:23:46;24.60;55.20
64468;DHT22;50853;46.836;16.820;2022-11-20T13:26:23;24.60;55.30
64468;DHT22;50853;46.836;16.820;2022-11-20T13:29:07;24.70;55.50
64468;DHT22;50853;46.836;16.820;2022-11-20T13:31:35;24.70;56.00
64468;DHT22;50853;46.836;16.820;2022-11-20T13:34:05;24.70;56.30
64468;DHT22;50853;46.836;16.820;2022-11-20T13:36:31;24.60;57.30
64468;DHT22;50853;46.836;16.820;2022-11-20T13:38:58;24.70;56.50
64468;DHT22;50853;46.836;16.820;2022-11-20T13:43:59;24.60;56.40
64468;DHT22;50853;46.836;16.820;2022-11-20T13:46:39;24.60;55.80
64468;DHT22;50853;46.836;16.820;2022-11-20T13:49:18;24.60;55.90
64468;DHT22;50853;46.836;16.820;2022-11-20T13:51:46;24.60;55.80
64468;DHT22;50853;46.836;16.820;2022-11-20T13:54:52;24.60;56.10
64468;DHT22;50853;46.836;16.820;2022-11-20T14:02:23;24.60;56.00
64468;DHT22;50853;46.836;16.820;2022-11-20T14:04:53;24.70;56.30
64468;DHT22;50853;46.836;16.820;2022-11-20T14:07:21;24.70;56.80
64468;DHT22;50853;46.836;16.820;2022-11-20T14:09:51;24.70;56.70
64468;DHT22;50853;46.836;16.820;2022-11-20T14:12:19;24.60;57.20
64468;DHT22;50853;46.836;16.820;2022-11-20T14:14:50;24.60;57.60
64468;DHT22;50853;46.836;16.820;2022-11-20T14:17:29;24.60;57.80
64468;DHT22;50853;46.836;16.820;2022-11-20T14:19:59;24.60;57.30
64468;DHT22;50853;46.836;16.820;2022-11-20T14:22:27;24.60;56.80
64468;DHT22;50853;46.836;16.820;2022-11-20T14:27:39;24.70;56.50
64468;DHT22;50853;46.836;16.820;2022-11-20T14:30:20;24.80;53.00
64468;DHT22;50853;46.836;16.820;2022-11-20T14:32:48;23.30;50.30
64468;DHT22;50853;46.836;16.820;2022-11-20T14:35:28;22.60;52.90
64468;DHT22;50853;46.836;16.820;2022-11-20T14:37:55;23.10;51.50
64468;DHT22;50853;46.836;16.820;2022-11-20T14:42:52;23.70;52.50
64468;DHT22;50853;46.836;16.820;2022-11-20T14:45:18;23.90;52.30
64468;DHT22;50853;46.836;16.820;2022-11-20T14:47:45;24.00;52.40
64468;DHT22;50853;46.836;16.820;2022-11-20T14:50:31;24.10;52.40
64468;DHT22;50853;46.836;16.820;2022-11-20T14:52:59;24.10;52.50
64468;DHT22;50853;46.836;16.820;2022-11-20T14:55:36;24.20;52.50
64468;DHT22;50853;46.836;16.820;2022-11-20T14:58:24;24.20;52.60
64468;DHT22;50853;46.836;16.820;2022-11-20T15:00:59;24.20;52.90
64468;DHT22;50853;46.836;16.820;2022-11-20T15:03:39;24.20;53.00
64468;DHT22;50853;46.836;16.820;2022-11-20T15:06:11;24.20;53.10
64468;DHT22;50853;46.836;16.820;2022-11-20T15:08:37;24.20;53.30
64468;DHT22;50853;46.836;16.820;2022-11-20T15:11:14;24.30;53.50
64468;DHT22;50853;46.836;16.820;2022-11-20T15:13:41;24.30;55.30
64468;DHT22;50853;46.836;16.820;2022-11-20T15:16:18;24.30;56.10
64468;DHT22;50853;46.836;16.820;2022-11-20T15:18:45;24.30;56.30
64468;DHT22;50853;46.836;16.820;2022-11-20T15:21:15;24.30;56.30
64468;DHT22;50853;46.836;16.820;2022-11-20T15:23:42;24.30;56.50
64468;DHT22;50853;46.836;16.820;2022-11-20T15:26:09;24.30;56.70
64468;DHT22;50853;46.836;16.820;2022-11-20T15:28:38;24.30;56.90
64468;DHT22;50853;46.836;16.820;2022-11-20T15:31:05;24.30;56.70
64468;DHT22;50853;46.836;16.820;2022-11-20T15:33:32;24.30;56.80
64468;DHT22;50853;46.836;16.820;2022-11-20T15:35:58;24.30;56.80
64468;DHT22;50853;46.836;16.820;2022-11-20T15:38:24;24.30;57.00
64468;DHT22;50853;46.836;16.820;2022-11-20T15:40:50;24.30;56.90
64468;DHT22;50853;46.836;16.820;2022-11-20T15:43:16;24.30;56.90
64468;DHT22;50853;46.836;16.820;2022-11-20T15:45:44;24.30;57.00
64468;DHT22;50853;46.836;16.820;2022-11-20T15:50:58;24.30;56.90
64468;DHT22;50853;46.836;16.820;2022-11-20T15:53:25;24.30;57.00
64468;DHT22;50853;46.836;16.820;2022-11-20T15:55:51;24.30;57.00
64468;DHT22;50853;46.836;16.820;2022-11-20T15:58:17;24.30;57.00
64468;DHT22;50853;46.836;16.820;2022-11-20T16:00:43;24.30;57.00
64468;DHT22;50853;46.836;16.820;2022-11-20T16:03:13;24.40;57.10
64468;DHT22;50853;46.836;16.820;2022-11-20T16:05:38;24.30;57.10
64468;DHT22;50853;46.836;16.820;2022-11-20T16:08:04;24.40;57.10
64468;DHT22;50853;46.836;16.820;2022-11-20T16:10:30;24.30;57.00
64468;DHT22;50853;46.836;16.820;2022-11-20T16:12:56;24.30;57.90
64468;DHT22;50853;46.836;16.820;2022-11-20T16:15:40;24.40;57.40
64468;DHT22;50853;46.836;16.820;2022-11-20T16:18:14;24.40;56.70
64468;DHT22;50853;46.836;16.820;2022-11-20T16:20:41;24.30;56.70
64468;DHT22;50853;46.836;16.820;2022-11-20T16:23:06;24.30;56.70
64468;DHT22;50853;46.836;16.820;2022-11-20T16:25:33;24.30;56.80
64468;DHT22;50853;46.836;16.820;2022-11-20T16:27:59;24.30;56.70
64468;DHT22;50853;46.836;16.820;2022-11-20T16:30:25;24.30;56.80
64468;DHT22;50853;46.836;16.820;2022-11-20T16:32:50;24.30;56.80
64468;DHT22;50853;46.836;16.820;2022-11-20T16:35:16;24.30;57.00
64468;DHT22;50853;46.836;16.820;2022-11-20T16:37:42;24.20;57.00
64468;DHT22;50853;46.836;16.820;2022-11-20T16:40:09;24.20;57.20
64468;DHT22;50853;46.836;16.820;2022-11-20T16:42:36;24.20;57.10
64468;DHT22;50853;46.836;16.820;2022-11-20T16:45:03;24.20;57.20
64468;DHT22;50853;46.836;16.820;2022-11-20T16:47:33;24.20;57.30
64468;DHT22;50853;46.836;16.820;2022-11-20T16:50:00;24.30;57.40
64468;DHT22;50853;46.836;16.820;2022-11-20T16:52:26;24.30;57.40
64468;DHT22;50853;46.836;16.820;2022-11-20T16:54:52;24.30;57.40
64468;DHT22;50853;46.836;16.820;2022-11-20T16:57:18;24.30;57.30
64468;DHT22;50853;46.836;16.820;2022-11-20T16:59:43;24.30;57.20
64468;DHT22;50853;46.836;16.820;2022-11-20T17:02:09;24.30;57.10
64468;DHT22;50853;46.836;16.820;2022-11-20T17:04:36;24.30;57.20
64468;DHT22;50853;46.836;16.820;2022-11-20T17:07:02;24.30;57.40
64468;DHT22;50853;46.836;16.820;2022-11-20T17:09:28;24.30;57.50
64468;DHT22;50853;46.836;16.820;2022-11-20T17:11:54;24.30;57.30
64468;DHT22;50853;46.836;16.820;2022-11-20T17:14:20;24.40;57.20
64468;DHT22;50853;46.836;16.820;2022-11-20T17:16:46;24.40;57.10
64468;DHT22;50853;46.836;16.820;2022-11-20T17:19:12;24.40;57.10
64468;DHT22;50853;46.836;16.820;2022-11-20T17:21:38;24.30;57.00
64468;DHT22;50853;46.836;16.820;2022-11-20T17:24:09;24.30;57.10
64468;DHT22;50853;46.836;16.820;2022-11-20T17:26:36;24.30;57.10
64468;DHT22;50853;46.836;16.820;2022-11-20T17:29:06;24.30;57.20
64468;DHT22;50853;46.836;16.820;2022-11-20T17:31:33;24.30;57.20
64468;DHT22;50853;46.836;16.820;2022-11-20T17:33:59;24.30;57.10
64468;DHT22;50853;46.836;16.820;2022-11-20T17:36:27;24.30;57.10
64468;DHT22;50853;46.836;16.820;2022-11-20T17:38:53;24.30;57.10
64468;DHT22;50853;46.836;16.820;2022-11-20T17:41:21;24.30;57.20
64468;DHT22;50853;46.836;16.820;2022-11-20T17:43:48;24.30;57.00
64468;DHT22;50853;46.836;16.820;2022-11-20T17:46:15;24.40;57.40
64468;DHT22;50853;46.836;16.820;2022-11-20T17:48:41;24.40;57.30
64468;DHT22;50853;46.836;16.820;2022-11-20T17:51:10;24.50;57.30
64468;DHT22;50853;46.836;16.820;2022-11-20T17:53:38;24.50;57.50
64468;DHT22;50853;46.836;16.820;2022-11-20T17:56:05;24.50;57.80
64468;DHT22;50853;46.836;16.820;2022-11-20T17:58:49;24.50;58.90
64468;DHT22;50853;46.836;16.820;2022-11-20T18:01:16;24.50;59.70
64468;DHT22;50853;46.836;16.820;2022-11-20T18:03:42;24.50;59.90
64468;DHT22;50853;46.836;16.820;2022-11-20T18:06:19;24.50;60.10
64468;DHT22;50853;46.836;16.820;2022-11-20T18:08:45;24.50;60.10
64468;DHT22;50853;46.836;16.820;2022-11-20T18:11:22;24.50;60.20
64468;DHT22;50853;46.836;16.820;2022-11-20T18:13:49;24.50;60.30
64468;DHT22;50853;46.836;16.820;2022-11-20T18:16:40;24.50;60.40
64468;DHT22;50853;46.836;16.820;2022-11-20T18:19:11;24.50;60.30
64468;DHT22;50853;46.836;16.820;2022-11-20T18:21:38;24.40;60.20
64468;DHT22;50853;46.836;16.820;2022-11-20T18:24:04;24.40;60.20
64468;DHT22;50853;46.836;16.820;2022-11-20T18:26:30;24.40;60.20
64468;DHT22;50853;46.836;16.820;2022-11-20T18:28:56;24.40;60.10
64468;DHT22;50853;46.836;16.820;2022-11-20T18:31:22;24.40;60.20
64468;DHT22;50853;46.836;16.820;2022-11-20T18:33:48;24.40;60.20
64468;DHT22;50853;46.836;16.820;2022-11-20T18:36:16;24.40;60.30
64468;DHT22;50853;46.836;16.820;2022-11-20T18:38:46;24.40;60.20
64468;DHT22;50853;46.836;16.820;2022-11-20T18:41:14;24.40;60.20
64468;DHT22;50853;46.836;16.820;2022-11-20T18:44:23;24.40;60.10
64468;DHT22;50853;46.836;16.820;2022-11-20T18:47:10;24.40;60.00
64468;DHT22;50853;46.836;16.820;2022-11-20T18:49:36;24.40;60.00
64468;DHT22;50853;46.836;16.820;2022-11-20T18:52:03;24.40;59.90
64468;DHT22;50853;46.836;16.820;2022-11-20T18:54:29;24.40;60.10
64468;DHT22;50853;46.836;16.820;2022-11-20T18:56:55;24.40;59.90
64468;DHT22;50853;46.836;16.820;2022-11-20T18:59:20;24.40;59.90
64468;DHT22;50853;46.836;16.820;2022-11-20T19:01:47;24.40;59.90
64468;DHT22;50853;46.836;16.820;2022-11-20T19:04:15;24.50;59.90
64468;DHT22;50853;46.836;16.820;2022-11-20T19:06:43;24.40;59.70
64468;DHT22;50853;46.836;16.820;2022-11-20T19:09:10;24.40;59.90
64468;DHT22;50853;46.836;16.820;2022-11-20T19:11:38;24.50;60.00
64468;DHT22;50853;46.836;16.820;2022-11-20T19:14:04;24.50;60.00
64468;DHT22;50853;46.836;16.820;2022-11-20T19:16:30;24.40;59.90
64468;DHT22;50853;46.836;16.820;2022-11-20T19:19:02;24.50;60.00
64468;DHT22;50853;46.836;16.820;2022-11-20T19:21:28;24.40;60.00
64468;DHT22;50853;46.836;16.820;2022-11-20T19:23:56;24.40;57.60
64468;DHT22;50853;46.836;16.820;2022-11-20T19:26:23;24.40;59.00
64468;DHT22;50853;46.836;16.820;2022-11-20T19:28:49;24.40;59.30
64468;DHT22;50853;46.836;16.820;2022-11-20T19:31:23;24.40;60.00
64468;DHT22;50853;46.836;16.820;2022-11-20T19:33:59;24.50;59.30
64468;DHT22;50853;46.836;16.820;2022-11-20T19:36:29;24.40;59.30
64468;DHT22;50853;46.836;16.820;2022-11-20T19:38:55;24.50;59.40
64468;DHT22;50853;46.836;16.820;2022-11-20T19:41:24;24.40;59.10
64468;DHT22;50853;46.836;16.820;2022-11-20T19:44:04;24.50;59.20
64468;DHT22;50853;46.836;16.820;2022-11-20T19:46:32;24.40;59.00
64468;DHT22;50853;46.836;16.820;2022-11-20T19:48:58;24.40;59.10
64468;DHT22;50853;46.836;16.820;2022-11-20T19:51:26;24.40;59.30
64468;DHT22;50853;46.836;16.820;2022-11-20T19:53:54;24.50;59.20
64468;DHT22;50853;46.836;16.820;2022-11-20T19:56:20;24.40;59.20
64468;DHT22;50853;46.836;16.820;2022-11-20T19:58:46;24.50;59.30
64468;DHT22;50853;46.836;16.820;2022-11-20T20:01:18;24.50;59.40
64468;DHT22;50853;46.836;16.820;2022-11-20T20:03:45;24.50;59.30
64468;DHT22;50853;46.836;16.820;2022-11-20T20:06:14;24.40;59.20
64468;DHT22;50853;46.836;16.820;2022-11-20T20:08:41;24.50;60.00
64468;DHT22;50853;46.836;16.820;2022-11-20T20:11:18;24.50;59.20
64468;DHT22;50853;46.836;16.820;2022-11-20T20:13:44;24.50;58.90
64468;DHT22;50853;46.836;16.820;2022-11-20T20:16:16;24.50;58.50
64468;DHT22;50853;46.836;16.820;2022-11-20T20:18:43;24.50;58.30
64468;DHT22;50853;46.836;16.820;2022-11-20T20:21:11;24.20;50.40
64468;DHT22;50853;46.836;16.820;2022-11-20T20:23:37;23.50;47.90
64468;DHT22;50853;46.836;16.820;2022-11-20T20:26:04;22.90;47.30
64468;DHT22;50853;46.836;16.820;2022-11-20T20:28:30;22.40;46.70
64468;DHT22;50853;46.836;16.820;2022-11-20T20:30:56;22.10;46.10
64468;DHT22;50853;46.836;16.820;2022-11-20T20:33:23;21.90;45.30
64468;DHT22;50853;46.836;16.820;2022-11-20T20:35:48;21.80;44.70
64468;DHT22;50853;46.836;16.820;2022-11-20T20:38:14;21.60;44.20
64468;DHT22;50853;46.836;16.820;2022-11-20T20:40:47;21.50;44.20
64468;DHT22;50853;46.836;16.820;2022-11-20T20:43:14;21.50;43.80
64468;DHT22;50853;46.836;16.820;2022-11-20T20:45:47;21.90;46.40
64468;DHT22;50853;46.836;16.820;2022-11-20T20:48:15;22.30;46.80
64468;DHT22;50853;46.836;16.820;2022-11-20T20:50:42;22.70;46.50
64468;DHT22;50853;46.836;16.820;2022-11-20T20:53:17;22.90;46.50
64468;DHT22;50853;46.836;16.820;2022-11-20T20:55:55;23.10;46.50
64468;DHT22;50853;46.836;16.820;2022-11-20T20:58:22;23.30;46.90
64468;DHT22;50853;46.836;16.820;2022-11-20T21:00:47;23.50;47.70
